createdAt,value
2018-01-12T00:00:16.116Z,270.00
2018-01-12T00:01:16.063Z,270.00
2018-01-12T00:02:16.146Z,292.50
2018-01-12T00:03:16.150Z,315.00
2018-01-12T00:04:16.112Z,270.00
2018-01-12T00:05:16.156Z,315.00
2018-01-12T00:06:16.050Z,292.50
2018-01-12T00:07:16.128Z,247.50
2018-01-12T00:08:16.153Z,315.00
2018-01-12T00:09:16.157Z,270.00
2018-01-12T00:10:16.083Z,247.50
2018-01-12T00:11:16.166Z,247.50
2018-01-12T00:12:16.103Z,337.50
2018-01-12T00:13:16.199Z,0.00
2018-01-12T00:14:16.172Z,0.00
2018-01-12T00:15:16.138Z,45.00
2018-01-12T00:16:16.107Z,22.50
2018-01-12T00:17:16.168Z,22.50
2018-01-12T00:18:16.166Z,22.50
2018-01-12T00:19:16.170Z,45.00
2018-01-12T00:20:16.059Z,22.50
2018-01-12T00:21:16.154Z,22.50
2018-01-12T00:22:16.112Z,112.50
2018-01-12T00:23:16.168Z,22.50
2018-01-12T00:24:16.123Z,202.50
2018-01-12T00:25:16.168Z,90.00
2018-01-12T00:26:16.055Z,67.50
2018-01-12T00:27:16.161Z,180.00
2018-01-12T00:28:16.172Z,337.50
2018-01-12T00:29:16.167Z,315.00
2018-01-12T00:30:16.083Z,157.50
2018-01-12T00:31:16.095Z,315.00
2018-01-12T00:32:16.075Z,180.00
2018-01-12T00:33:16.159Z,337.50
2018-01-12T00:34:16.101Z,270.00
2018-01-12T00:35:16.171Z,202.50
2018-01-12T00:36:16.085Z,90.00
2018-01-12T00:37:16.098Z,45.00
2018-01-12T00:38:16.078Z,90.00
2018-01-12T00:39:16.176Z,202.50
2018-01-12T00:40:16.137Z,22.50
2018-01-12T00:41:16.172Z,90.00
2018-01-12T00:42:16.121Z,270.00
2018-01-12T00:43:16.102Z,292.50
2018-01-12T00:44:16.174Z,337.50
2018-01-12T00:45:16.074Z,337.50
2018-01-12T00:46:16.086Z,225.00
2018-01-12T00:47:16.092Z,292.50
2018-01-12T00:48:16.059Z,157.50
2018-01-12T00:49:16.177Z,135.00
2018-01-12T00:50:16.089Z,180.00
2018-01-12T00:51:16.121Z,112.50
2018-01-12T00:52:16.190Z,157.50
2018-01-12T00:53:16.122Z,157.50
2018-01-12T00:54:16.189Z,202.50
2018-01-12T00:55:16.126Z,202.50
2018-01-12T00:56:16.122Z,270.00
2018-01-12T00:57:16.197Z,292.50
2018-01-12T00:58:16.192Z,270.00
2018-01-12T00:59:16.127Z,270.00
2018-01-12T01:00:16.192Z,270.00
2018-01-12T01:01:16.128Z,292.50
2018-01-12T01:02:16.195Z,270.00
2018-01-12T01:03:16.131Z,247.50
2018-01-12T01:04:16.198Z,112.50
2018-01-12T01:05:16.133Z,247.50
2018-01-12T01:06:16.203Z,135.00
2018-01-12T01:07:16.136Z,180.00
2018-01-12T01:08:16.139Z,225.00
2018-01-12T01:09:16.200Z,90.00
2018-01-12T01:10:16.143Z,45.00
2018-01-12T01:11:16.192Z,225.00
2018-01-12T01:12:16.187Z,112.50
2018-01-12T01:13:16.189Z,90.00
2018-01-12T01:14:16.144Z,157.50
2018-01-12T01:16:16.192Z,157.50
2018-01-12T01:17:16.157Z,112.50
2018-01-12T01:18:16.106Z,135.00
2018-01-12T01:19:16.127Z,135.00
2018-01-12T01:20:16.112Z,90.00
2018-01-12T01:21:16.161Z,315.00
2018-01-12T01:22:16.078Z,247.50
2018-01-12T01:23:16.201Z,45.00
2018-01-12T01:24:16.108Z,157.50
2018-01-12T01:25:16.165Z,135.00
2018-01-12T01:26:16.188Z,225.00
2018-01-12T01:27:16.108Z,315.00
2018-01-12T01:28:16.088Z,315.00
2018-01-12T01:29:16.156Z,337.50
2018-01-12T01:30:16.084Z,337.50
2018-01-12T01:31:16.150Z,270.00
2018-01-12T01:32:16.212Z,202.50
2018-01-12T01:33:16.151Z,67.50
2018-01-12T01:34:16.216Z,135.00
2018-01-12T01:35:16.159Z,135.00
2018-01-12T01:36:16.104Z,180.00
2018-01-12T01:37:16.222Z,337.50
2018-01-12T01:38:16.152Z,337.50
2018-01-12T01:39:16.218Z,315.00
2018-01-12T01:40:16.224Z,315.00
2018-01-12T01:41:16.218Z,315.00
2018-01-12T01:42:16.127Z,45.00
2018-01-12T01:43:16.122Z,90.00
2018-01-12T01:44:16.217Z,0.00
2018-01-12T01:45:16.147Z,0.00
2018-01-12T01:46:16.213Z,180.00
2018-01-12T01:47:16.152Z,22.50
2018-01-12T01:48:16.178Z,67.50
2018-01-12T01:49:16.141Z,22.50
2018-01-12T01:50:16.154Z,67.50
2018-01-12T01:51:16.203Z,22.50
2018-01-12T01:52:16.161Z,247.50
2018-01-12T01:53:16.228Z,90.00
2018-01-12T01:54:16.227Z,157.50
2018-01-12T01:55:16.160Z,112.50
2018-01-12T01:56:16.167Z,90.00
2018-01-12T01:57:16.161Z,112.50
2018-01-12T01:58:16.235Z,45.00
2018-01-12T01:59:16.124Z,157.50
2018-01-12T02:00:16.233Z,90.00
2018-01-12T02:01:16.134Z,90.00
2018-01-12T02:02:16.104Z,225.00
2018-01-12T02:03:16.175Z,157.50
2018-01-12T02:04:16.183Z,22.50
2018-01-12T02:05:16.134Z,22.50
2018-01-12T02:06:16.180Z,247.50
2018-01-12T02:07:16.154Z,180.00
2018-01-12T02:08:16.181Z,135.00
2018-01-12T02:09:16.179Z,22.50
2018-01-12T02:10:16.109Z,22.50
2018-01-12T02:11:16.136Z,22.50
2018-01-12T02:12:16.242Z,22.50
2018-01-12T02:13:16.167Z,22.50
2018-01-12T02:14:16.226Z,67.50
2018-01-12T02:15:16.129Z,22.50
2018-01-12T02:16:16.164Z,90.00
2018-01-12T02:17:16.193Z,22.50
2018-01-12T02:18:16.171Z,0.00
2018-01-12T02:19:16.195Z,22.50
2018-01-12T02:20:16.207Z,45.00
2018-01-12T02:21:16.251Z,22.50
2018-01-12T02:22:16.174Z,22.50
2018-01-12T02:23:16.246Z,22.50
2018-01-12T02:24:16.237Z,22.50
2018-01-12T02:25:16.175Z,22.50
2018-01-12T02:26:16.255Z,22.50
2018-01-12T02:27:16.182Z,22.50
2018-01-12T02:28:16.246Z,22.50
2018-01-12T02:29:16.182Z,22.50
2018-01-12T02:30:16.251Z,22.50
2018-01-12T02:31:16.217Z,22.50
2018-01-12T02:32:16.194Z,22.50
2018-01-12T02:33:16.192Z,22.50
2018-01-12T02:34:16.256Z,22.50
2018-01-12T02:35:16.189Z,22.50
2018-01-12T02:36:16.255Z,22.50
2018-01-12T02:37:16.188Z,22.50
2018-01-12T02:38:16.187Z,22.50
2018-01-12T02:39:16.255Z,22.50
2018-01-12T02:40:16.212Z,22.50
2018-01-12T02:41:16.208Z,22.50
2018-01-12T02:42:16.124Z,22.50
2018-01-12T02:43:16.215Z,67.50
2018-01-12T02:44:16.126Z,67.50
2018-01-12T02:45:16.191Z,67.50
2018-01-12T02:46:16.132Z,45.00
2018-01-12T02:47:16.165Z,45.00
2018-01-12T02:48:16.243Z,45.00
2018-01-12T02:49:16.139Z,22.50
2018-01-12T02:50:16.244Z,22.50
2018-01-12T02:51:16.190Z,22.50
2018-01-12T02:52:16.203Z,22.50
2018-01-12T02:53:16.168Z,22.50
2018-01-12T02:54:16.251Z,22.50
2018-01-12T02:55:16.170Z,225.00
2018-01-12T02:56:16.252Z,0.00
2018-01-12T02:57:16.218Z,90.00
2018-01-12T02:58:16.260Z,202.50
2018-01-12T02:59:16.166Z,22.50
2018-01-12T03:00:16.183Z,22.50
2018-01-12T03:01:16.271Z,22.50
2018-01-12T03:02:16.285Z,112.50
2018-01-12T03:03:16.265Z,22.50
2018-01-12T03:04:16.264Z,22.50
2018-01-12T03:05:16.270Z,247.50
2018-01-12T03:06:16.204Z,22.50
2018-01-12T03:07:16.273Z,0.00
2018-01-12T03:08:16.206Z,0.00
2018-01-12T03:09:16.280Z,0.00
2018-01-12T03:10:16.274Z,22.50
2018-01-12T03:11:16.260Z,22.50
2018-01-12T03:12:16.170Z,22.50
2018-01-12T03:13:16.164Z,22.50
2018-01-12T03:14:16.139Z,22.50
2018-01-12T03:15:16.262Z,22.50
2018-01-12T03:16:16.143Z,22.50
2018-01-12T03:17:16.212Z,90.00
2018-01-12T03:18:16.146Z,157.50
2018-01-12T03:19:16.267Z,270.00
2018-01-12T03:20:16.237Z,292.50
2018-01-12T03:21:16.213Z,45.00
2018-01-12T03:22:16.276Z,337.50
2018-01-12T03:23:16.214Z,315.00
2018-01-12T03:24:16.220Z,337.50
2018-01-12T03:25:16.215Z,337.50
2018-01-12T03:26:16.283Z,337.50
2018-01-12T03:27:16.288Z,180.00
2018-01-12T03:28:16.218Z,202.50
2018-01-12T03:29:16.303Z,315.00
2018-01-12T03:30:16.288Z,315.00
2018-01-12T03:31:16.199Z,315.00
2018-01-12T03:32:16.257Z,135.00
2018-01-12T03:33:16.173Z,202.50
2018-01-12T03:34:16.271Z,90.00
2018-01-12T03:35:16.279Z,67.50
2018-01-12T03:36:16.282Z,22.50
2018-01-12T03:37:16.195Z,22.50
2018-01-12T03:38:16.177Z,292.50
2018-01-12T03:39:16.284Z,135.00
2018-01-12T03:40:16.254Z,225.00
2018-01-12T03:41:16.223Z,247.50
2018-01-12T03:42:16.290Z,180.00
2018-01-12T03:43:16.225Z,180.00
2018-01-12T03:44:16.292Z,22.50
2018-01-12T03:45:16.293Z,157.50
2018-01-12T03:46:16.230Z,112.50
2018-01-12T03:47:16.232Z,22.50
2018-01-12T03:48:16.301Z,90.00
2018-01-12T03:49:16.228Z,135.00
2018-01-12T03:50:16.294Z,292.50
2018-01-12T03:51:16.236Z,202.50
2018-01-12T03:52:16.297Z,270.00
2018-01-12T03:53:16.300Z,225.00
2018-01-12T03:54:16.302Z,337.50
2018-01-12T03:55:16.235Z,247.50
2018-01-12T03:56:16.299Z,225.00
2018-01-12T03:57:16.236Z,292.50
2018-01-12T03:58:16.302Z,292.50
2018-01-12T03:59:16.237Z,270.00
2018-01-12T04:00:16.321Z,337.50
2018-01-12T04:01:16.229Z,337.50
2018-01-12T04:02:16.300Z,292.50
2018-01-12T04:03:16.179Z,337.50
2018-01-12T04:04:16.246Z,270.00
2018-01-12T04:05:16.210Z,0.00
2018-01-12T04:06:16.211Z,0.00
2018-01-12T04:07:16.294Z,157.50
2018-01-12T04:08:16.293Z,22.50
2018-01-12T04:09:16.213Z,22.50
2018-01-12T04:10:16.308Z,22.50
2018-01-12T04:11:16.291Z,22.50
2018-01-12T04:12:16.244Z,90.00
2018-01-12T04:13:16.292Z,22.50
2018-01-12T04:14:16.268Z,22.50
2018-01-12T04:15:16.209Z,0.00
2018-01-12T04:16:16.212Z,67.50
2018-01-12T04:17:16.209Z,112.50
2018-01-12T04:18:16.297Z,67.50
2018-01-12T04:19:16.246Z,45.00
2018-01-12T04:20:16.252Z,135.00
2018-01-12T04:21:16.204Z,22.50
2018-01-12T04:22:16.317Z,157.50
2018-01-12T04:23:16.254Z,337.50
2018-01-12T04:24:16.316Z,337.50
2018-01-12T04:25:16.252Z,315.00
2018-01-12T04:26:16.328Z,292.50
2018-01-12T04:27:16.319Z,337.50
2018-01-12T04:28:16.385Z,292.50
2018-01-12T04:29:16.317Z,315.00
2018-01-12T04:30:16.323Z,202.50
2018-01-12T04:31:16.257Z,225.00
2018-01-12T04:32:16.323Z,292.50
2018-01-12T04:33:16.261Z,315.00
2018-01-12T04:34:16.321Z,292.50
2018-01-12T04:35:16.255Z,337.50
2018-01-12T04:36:16.326Z,157.50
2018-01-12T04:37:16.260Z,180.00
2018-01-12T04:38:16.334Z,112.50
2018-01-12T04:39:16.260Z,135.00
2018-01-12T04:40:16.328Z,315.00
2018-01-12T04:41:16.231Z,135.00
2018-01-12T04:42:16.323Z,247.50
2018-01-12T04:43:16.283Z,292.50
2018-01-12T04:44:16.322Z,315.00
2018-01-12T04:45:16.321Z,247.50
2018-01-12T04:46:16.326Z,112.50
2018-01-12T04:47:16.236Z,22.50
2018-01-12T04:48:16.327Z,135.00
2018-01-12T04:49:16.251Z,135.00
2018-01-12T04:50:16.239Z,157.50
2018-01-12T04:51:16.324Z,67.50
2018-01-12T04:52:16.278Z,157.50
2018-01-12T04:53:16.190Z,135.00
2018-01-12T04:54:16.190Z,90.00
2018-01-12T04:55:16.249Z,135.00
2018-01-12T04:56:16.230Z,90.00
2018-01-12T04:57:16.193Z,157.50
2018-01-12T04:58:16.285Z,315.00
2018-01-12T04:59:16.240Z,270.00
2018-01-12T05:00:16.194Z,22.50
2018-01-12T05:01:16.289Z,337.50
2018-01-12T05:02:16.271Z,202.50
2018-01-12T05:03:16.344Z,90.00
2018-01-12T05:04:16.340Z,135.00
2018-01-12T05:05:16.345Z,67.50
2018-01-12T05:06:16.277Z,45.00
2018-01-12T05:07:16.346Z,22.50
2018-01-12T05:08:16.278Z,0.00
2018-01-12T05:09:16.347Z,0.00
2018-01-12T05:10:16.285Z,0.00
2018-01-12T05:11:16.348Z,315.00
2018-01-12T05:12:16.293Z,0.00
2018-01-12T05:13:16.204Z,0.00
2018-01-12T05:14:16.207Z,0.00
2018-01-12T05:15:16.292Z,0.00
2018-01-12T05:16:16.204Z,0.00
2018-01-12T05:17:16.294Z,0.00
2018-01-12T05:18:16.249Z,0.00
2018-01-12T05:19:16.250Z,315.00
2018-01-12T05:20:16.251Z,337.50
2018-01-12T05:21:16.205Z,292.50
2018-01-12T05:22:16.352Z,90.00
2018-01-12T05:23:16.288Z,90.00
2018-01-12T05:24:16.351Z,225.00
2018-01-12T05:25:16.355Z,45.00
2018-01-12T05:26:16.292Z,315.00
2018-01-12T05:27:16.292Z,337.50
2018-01-12T05:28:16.362Z,45.00
2018-01-12T05:29:16.291Z,247.50
2018-01-12T05:30:16.288Z,337.50
2018-01-12T05:31:16.360Z,292.50
2018-01-12T05:32:16.383Z,225.00
2018-01-12T05:33:16.291Z,157.50
2018-01-12T05:34:16.358Z,337.50
2018-01-12T05:35:16.322Z,270.00
2018-01-12T05:36:16.360Z,315.00
2018-01-12T05:37:16.359Z,337.50
2018-01-12T05:38:16.297Z,315.00
2018-01-12T05:39:16.301Z,292.50
2018-01-12T05:40:16.363Z,270.00
2018-01-12T05:41:16.300Z,292.50
2018-01-12T05:42:16.297Z,247.50
2018-01-12T05:43:16.373Z,225.00
2018-01-12T05:44:16.372Z,180.00
2018-01-12T05:45:16.382Z,90.00
2018-01-12T05:46:16.299Z,315.00
2018-01-12T05:47:16.368Z,292.50
2018-01-12T05:48:16.303Z,90.00
2018-01-12T05:49:16.371Z,22.50
2018-01-12T05:50:16.341Z,22.50
2018-01-12T05:51:16.304Z,22.50
2018-01-12T05:52:16.373Z,45.00
2018-01-12T05:53:16.371Z,45.00
2018-01-12T05:54:16.305Z,22.50
2018-01-12T05:55:16.307Z,22.50
2018-01-12T05:56:16.400Z,45.00
2018-01-12T05:57:16.313Z,22.50
2018-01-12T05:58:16.375Z,22.50
2018-01-12T05:59:16.310Z,22.50
2018-01-12T06:00:16.376Z,22.50
2018-01-12T06:01:16.376Z,22.50
2018-01-12T06:02:16.382Z,22.50
2018-01-12T06:03:16.310Z,22.50
2018-01-12T06:04:16.377Z,22.50
2018-01-12T06:05:16.314Z,22.50
2018-01-12T06:06:16.380Z,22.50
2018-01-12T06:07:16.316Z,67.50
2018-01-12T06:08:16.377Z,67.50
2018-01-12T06:09:16.311Z,67.50
2018-01-12T06:10:16.384Z,67.50
2018-01-12T06:11:16.315Z,45.00
2018-01-12T06:12:16.390Z,45.00
2018-01-12T06:13:16.311Z,45.00
2018-01-12T06:14:16.320Z,45.00
2018-01-12T06:15:16.334Z,45.00
2018-01-12T06:16:16.252Z,45.00
2018-01-12T06:17:16.253Z,45.00
2018-01-12T06:18:16.257Z,45.00
2018-01-12T06:19:16.287Z,45.00
2018-01-12T06:20:16.368Z,45.00
2018-01-12T06:21:16.257Z,45.00
2018-01-12T06:22:16.317Z,45.00
2018-01-12T06:23:16.258Z,45.00
2018-01-12T06:24:16.289Z,45.00
2018-01-12T06:25:16.284Z,22.50
2018-01-12T06:26:16.288Z,22.50
2018-01-12T06:27:16.353Z,337.50
2018-01-12T06:28:16.291Z,112.50
2018-01-12T06:29:16.387Z,135.00
2018-01-12T06:30:16.325Z,157.50
2018-01-12T06:31:16.288Z,247.50
2018-01-12T06:32:16.396Z,67.50
2018-01-12T06:33:16.331Z,90.00
2018-01-12T06:34:16.286Z,22.50
2018-01-12T06:35:16.398Z,157.50
2018-01-12T06:36:16.371Z,135.00
2018-01-12T06:37:16.327Z,0.00
2018-01-12T06:38:16.405Z,0.00
2018-01-12T06:39:16.332Z,180.00
2018-01-12T06:40:16.400Z,315.00
2018-01-12T06:41:16.333Z,180.00
2018-01-12T06:42:16.305Z,337.50
2018-01-12T06:43:16.308Z,270.00
2018-01-12T06:44:16.391Z,22.50
2018-01-12T06:45:16.369Z,0.00
2018-01-12T06:46:16.308Z,0.00
2018-01-12T06:47:16.312Z,0.00
2018-01-12T06:48:16.369Z,0.00
2018-01-12T06:49:16.311Z,0.00
2018-01-12T06:50:16.307Z,0.00
2018-01-12T06:51:16.398Z,0.00
2018-01-12T06:52:16.375Z,0.00
2018-01-12T06:53:16.397Z,0.00
2018-01-12T06:54:16.308Z,135.00
2018-01-12T06:55:16.374Z,157.50
2018-01-12T06:56:16.399Z,157.50
2018-01-12T06:57:16.397Z,135.00
2018-01-12T06:58:16.307Z,135.00
2018-01-12T06:59:16.315Z,90.00
2018-01-12T07:00:16.332Z,112.50
2018-01-12T07:01:16.404Z,112.50
2018-01-12T07:02:16.354Z,112.50
2018-01-12T07:03:16.415Z,112.50
2018-01-12T07:04:16.394Z,112.50
2018-01-12T07:05:16.353Z,112.50
2018-01-12T07:06:16.416Z,157.50
2018-01-12T07:07:16.412Z,157.50
2018-01-12T07:08:16.350Z,180.00
2018-01-12T07:09:16.418Z,180.00
2018-01-12T07:10:16.353Z,202.50
2018-01-12T07:11:16.418Z,180.00
2018-01-12T07:12:16.412Z,157.50
2018-01-12T07:13:16.343Z,180.00
2018-01-12T07:14:16.359Z,157.50
2018-01-12T07:15:16.373Z,157.50
2018-01-12T07:16:16.410Z,180.00
2018-01-12T07:17:16.416Z,135.00
2018-01-12T07:18:16.414Z,67.50
2018-01-12T07:19:16.383Z,67.50
2018-01-12T07:20:16.418Z,90.00
2018-01-12T07:21:16.380Z,90.00
2018-01-12T07:22:16.376Z,67.50
2018-01-12T07:23:16.387Z,67.50
2018-01-12T07:24:16.350Z,67.50
2018-01-12T07:25:16.376Z,90.00
2018-01-12T07:26:16.354Z,112.50
2018-01-12T07:27:16.361Z,112.50
2018-01-12T07:28:16.386Z,90.00
2018-01-12T07:29:16.382Z,90.00
2018-01-12T07:30:16.409Z,67.50
2018-01-12T07:31:16.380Z,67.50
2018-01-12T07:32:16.384Z,90.00
2018-01-12T07:33:16.364Z,90.00
2018-01-12T07:34:16.329Z,90.00
2018-01-12T07:35:16.326Z,90.00
2018-01-12T07:36:16.386Z,67.50
2018-01-12T07:37:16.416Z,90.00
2018-01-12T07:38:16.366Z,90.00
2018-01-12T07:39:16.359Z,90.00
2018-01-12T07:40:16.390Z,90.00
2018-01-12T07:41:16.362Z,112.50
2018-01-12T07:42:16.438Z,112.50
2018-01-12T07:43:16.373Z,135.00
2018-01-12T07:44:16.437Z,135.00
2018-01-12T07:45:16.404Z,112.50
2018-01-12T07:46:16.460Z,90.00
2018-01-12T07:47:16.413Z,135.00
2018-01-12T07:48:16.462Z,157.50
2018-01-12T07:49:16.375Z,112.50
2018-01-12T07:50:16.383Z,157.50
2018-01-12T07:51:16.443Z,157.50
2018-01-12T07:52:16.383Z,157.50
2018-01-12T07:53:16.376Z,157.50
2018-01-12T07:54:16.411Z,135.00
2018-01-12T07:55:16.379Z,157.50
2018-01-12T07:56:16.335Z,157.50
2018-01-12T07:57:16.395Z,90.00
2018-01-12T07:58:16.431Z,67.50
2018-01-12T07:59:16.436Z,90.00
2018-01-12T08:00:16.374Z,90.00
2018-01-12T08:01:16.380Z,90.00
2018-01-12T08:02:16.467Z,135.00
2018-01-12T08:03:16.447Z,157.50
2018-01-12T08:04:16.384Z,135.00
2018-01-12T08:05:16.391Z,90.00
2018-01-12T08:06:16.451Z,135.00
2018-01-12T08:07:16.393Z,135.00
2018-01-12T08:08:16.452Z,67.50
2018-01-12T08:09:16.454Z,112.50
2018-01-12T08:10:16.385Z,67.50
2018-01-12T08:11:16.454Z,112.50
2018-01-12T08:12:16.391Z,67.50
2018-01-12T08:13:16.452Z,90.00
2018-01-12T08:14:16.460Z,67.50
2018-01-12T08:15:16.458Z,112.50
2018-01-12T08:16:16.453Z,112.50
2018-01-12T08:17:16.393Z,112.50
2018-01-12T08:18:16.395Z,112.50
2018-01-12T08:19:16.546Z,135.00
2018-01-12T08:20:16.394Z,67.50
2018-01-12T08:21:16.390Z,112.50
2018-01-12T08:22:16.456Z,157.50
2018-01-12T08:23:16.395Z,157.50
2018-01-12T08:24:16.459Z,135.00
2018-01-12T08:25:16.408Z,135.00
2018-01-12T08:26:16.459Z,135.00
2018-01-12T08:27:16.396Z,112.50
2018-01-12T08:28:16.466Z,90.00
2018-01-12T08:29:16.403Z,67.50
2018-01-12T08:30:16.401Z,67.50
2018-01-12T08:31:16.463Z,67.50
2018-01-12T08:32:16.404Z,67.50
2018-01-12T08:33:16.467Z,67.50
2018-01-12T08:34:16.401Z,45.00
2018-01-12T08:35:16.403Z,45.00
2018-01-12T08:36:16.468Z,90.00
2018-01-12T08:37:16.470Z,22.50
2018-01-12T08:38:16.403Z,45.00
2018-01-12T08:39:16.467Z,45.00
2018-01-12T08:40:16.472Z,45.00
2018-01-12T08:41:16.399Z,45.00
2018-01-12T08:42:16.521Z,22.50
2018-01-12T08:43:16.473Z,22.50
2018-01-12T08:44:16.455Z,22.50
2018-01-12T08:45:16.475Z,22.50
2018-01-12T08:46:16.405Z,180.00
2018-01-12T08:47:16.476Z,112.50
2018-01-12T08:48:16.408Z,270.00
2018-01-12T08:49:16.408Z,225.00
2018-01-12T08:50:16.493Z,337.50
2018-01-12T08:51:16.412Z,0.00
2018-01-12T08:52:16.427Z,157.50
2018-01-12T08:53:16.386Z,67.50
2018-01-12T08:54:16.386Z,315.00
2018-01-12T08:55:16.412Z,247.50
2018-01-12T08:56:16.429Z,292.50
2018-01-12T08:57:16.351Z,45.00
2018-01-12T08:58:16.382Z,180.00
2018-01-12T08:59:16.416Z,315.00
2018-01-12T09:00:16.407Z,157.50
2018-01-12T09:01:16.477Z,337.50
2018-01-12T09:02:16.428Z,135.00
2018-01-12T09:03:16.387Z,22.50
2018-01-12T09:04:16.364Z,90.00
2018-01-12T09:05:16.482Z,292.50
2018-01-12T09:06:16.349Z,0.00
2018-01-12T09:07:16.471Z,180.00
2018-01-12T09:08:16.472Z,337.50
2018-01-12T09:09:16.391Z,45.00
2018-01-12T09:10:16.454Z,247.50
2018-01-12T09:11:16.364Z,135.00
2018-01-12T09:12:16.475Z,225.00
2018-01-12T09:13:16.415Z,22.50
2018-01-12T09:14:16.349Z,45.00
2018-01-12T09:15:16.418Z,270.00
2018-01-12T09:16:16.381Z,292.50
2018-01-12T09:17:16.388Z,202.50
2018-01-12T09:18:16.385Z,292.50
2018-01-12T09:19:16.382Z,270.00
2018-01-12T09:20:16.456Z,45.00
2018-01-12T09:21:16.478Z,202.50
2018-01-12T09:22:16.428Z,292.50
2018-01-12T09:23:16.372Z,157.50
2018-01-12T09:24:16.455Z,315.00
2018-01-12T09:25:16.495Z,135.00
2018-01-12T09:26:16.432Z,202.50
2018-01-12T09:27:16.500Z,67.50
2018-01-12T09:28:16.496Z,45.00
2018-01-12T09:29:16.432Z,67.50
2018-01-12T09:30:16.503Z,90.00
2018-01-12T09:31:16.435Z,67.50
2018-01-12T09:32:16.500Z,90.00
2018-01-12T09:33:16.503Z,67.50
2018-01-12T09:34:16.429Z,67.50
2018-01-12T09:35:16.501Z,67.50
2018-01-12T09:36:16.501Z,22.50
2018-01-12T09:37:16.438Z,22.50
2018-01-12T09:38:16.464Z,67.50
2018-01-12T09:39:16.503Z,45.00
2018-01-12T09:40:16.469Z,22.50
2018-01-12T09:41:16.507Z,22.50
2018-01-12T09:42:16.486Z,180.00
2018-01-12T09:43:16.398Z,270.00
2018-01-12T09:44:16.360Z,225.00
2018-01-12T09:45:16.454Z,270.00
2018-01-12T09:46:16.465Z,315.00
2018-01-12T09:47:16.456Z,292.50
2018-01-12T09:48:16.461Z,247.50
2018-01-12T09:49:16.494Z,225.00
2018-01-12T09:50:16.496Z,247.50
2018-01-12T09:51:16.466Z,247.50
2018-01-12T09:52:16.444Z,202.50
2018-01-12T09:53:16.571Z,247.50
2018-01-12T09:54:16.513Z,202.50
2018-01-12T09:55:16.447Z,202.50
2018-01-12T09:56:16.514Z,202.50
2018-01-12T09:57:16.536Z,202.50
2018-01-12T09:58:16.518Z,157.50
2018-01-12T09:59:16.454Z,180.00
2018-01-12T10:00:16.516Z,247.50
2018-01-12T10:01:16.450Z,337.50
2018-01-12T10:02:16.393Z,270.00
2018-01-12T10:03:16.482Z,202.50
2018-01-12T10:04:16.530Z,337.50
2018-01-12T10:05:16.507Z,157.50
2018-01-12T10:06:16.506Z,67.50
2018-01-12T10:07:16.444Z,67.50
2018-01-12T10:08:16.408Z,202.50
2018-01-12T10:09:16.491Z,202.50
2018-01-12T10:10:16.448Z,202.50
2018-01-12T10:11:16.409Z,180.00
2018-01-12T10:12:16.528Z,225.00
2018-01-12T10:13:16.528Z,202.50
2018-01-12T10:14:16.456Z,202.50
2018-01-12T10:15:16.531Z,157.50
2018-01-12T10:16:16.461Z,135.00
2018-01-12T10:17:16.547Z,90.00
2018-01-12T10:18:16.493Z,67.50
2018-01-12T10:19:16.526Z,135.00
2018-01-12T10:20:16.542Z,180.00
2018-01-12T10:21:16.459Z,135.00
2018-01-12T10:22:16.425Z,157.50
2018-01-12T10:23:16.460Z,67.50
2018-01-12T10:24:16.421Z,45.00
2018-01-12T10:25:16.464Z,67.50
2018-01-12T10:26:16.536Z,45.00
2018-01-12T10:27:16.470Z,45.00
2018-01-12T10:28:16.534Z,45.00
2018-01-12T10:29:16.467Z,22.50
2018-01-12T10:30:16.538Z,45.00
2018-01-12T10:31:16.535Z,22.50
2018-01-12T10:32:16.469Z,45.00
2018-01-12T10:33:16.538Z,45.00
2018-01-12T10:34:16.541Z,337.50
2018-01-12T10:35:16.473Z,90.00
2018-01-12T10:36:16.538Z,292.50
2018-01-12T10:37:16.477Z,180.00
2018-01-12T10:38:16.545Z,247.50
2018-01-12T10:39:16.474Z,225.00
2018-01-12T10:40:16.515Z,292.50
2018-01-12T10:41:16.539Z,225.00
2018-01-12T10:42:16.477Z,225.00
2018-01-12T10:43:16.542Z,270.00
2018-01-12T10:44:16.483Z,270.00
2018-01-12T10:45:16.544Z,202.50
2018-01-12T10:46:16.479Z,180.00
2018-01-12T10:47:16.545Z,202.50
2018-01-12T10:48:16.483Z,202.50
2018-01-12T10:49:16.545Z,180.00
2018-01-12T10:50:16.503Z,202.50
2018-01-12T10:51:16.545Z,202.50
2018-01-12T10:52:16.482Z,202.50
2018-01-12T10:53:16.547Z,225.00
2018-01-12T10:54:16.475Z,270.00
2018-01-12T10:55:16.554Z,315.00
2018-01-12T10:56:16.483Z,337.50
2018-01-12T10:57:16.549Z,0.00
2018-01-12T10:58:16.484Z,202.50
2018-01-12T10:59:16.553Z,202.50
2018-01-12T11:00:16.484Z,247.50
2018-01-12T11:01:16.553Z,270.00
2018-01-12T11:02:16.493Z,90.00
2018-01-12T11:03:16.552Z,0.00
2018-01-12T11:04:16.517Z,67.50
2018-01-12T11:05:16.556Z,0.00
2018-01-12T11:06:16.488Z,0.00
2018-01-12T11:07:16.576Z,0.00
2018-01-12T11:08:16.493Z,0.00
2018-01-12T11:09:16.566Z,45.00
2018-01-12T11:10:16.494Z,45.00
2018-01-12T11:11:16.563Z,45.00
2018-01-12T11:12:16.493Z,22.50
2018-01-12T11:13:16.562Z,45.00
2018-01-12T11:14:16.498Z,45.00
2018-01-12T11:15:16.562Z,45.00
2018-01-12T11:16:16.496Z,45.00
2018-01-12T11:17:16.564Z,22.50
2018-01-12T11:18:16.498Z,22.50
2018-01-12T11:19:16.565Z,112.50
2018-01-12T11:20:16.571Z,247.50
2018-01-12T11:21:16.504Z,225.00
2018-01-12T11:22:16.476Z,112.50
2018-01-12T11:23:16.519Z,337.50
2018-01-12T11:24:16.494Z,337.50
2018-01-12T11:25:16.441Z,292.50
2018-01-12T11:26:16.460Z,225.00
2018-01-12T11:27:16.531Z,135.00
2018-01-12T11:28:16.536Z,225.00
2018-01-12T11:29:16.597Z,315.00
2018-01-12T11:30:16.530Z,112.50
2018-01-12T11:31:16.555Z,225.00
2018-01-12T11:32:16.548Z,247.50
2018-01-12T11:33:16.576Z,247.50
2018-01-12T11:34:16.503Z,22.50
2018-01-12T11:35:16.573Z,247.50
2018-01-12T11:36:16.574Z,225.00
2018-01-12T11:37:16.511Z,112.50
2018-01-12T11:38:16.576Z,337.50
2018-01-12T11:39:16.586Z,270.00
2018-01-12T11:40:16.600Z,45.00
2018-01-12T11:41:16.579Z,225.00
2018-01-12T11:42:16.507Z,337.50
2018-01-12T11:43:16.607Z,315.00
2018-01-12T11:44:16.515Z,270.00
2018-01-12T11:45:16.579Z,247.50
2018-01-12T11:46:16.580Z,315.00
2018-01-12T11:47:16.578Z,90.00
2018-01-12T11:48:16.526Z,247.50
2018-01-12T11:49:16.610Z,270.00
2018-01-12T11:50:16.582Z,337.50
2018-01-12T11:51:16.532Z,292.50
2018-01-12T11:52:16.585Z,247.50
2018-01-12T11:53:16.514Z,135.00
2018-01-12T11:54:16.481Z,112.50
2018-01-12T11:55:16.532Z,45.00
2018-01-12T11:56:16.462Z,157.50
2018-01-12T11:57:16.516Z,135.00
2018-01-12T11:58:16.569Z,135.00
2018-01-12T11:59:16.516Z,292.50
2018-01-12T12:00:16.572Z,45.00
2018-01-12T12:01:16.514Z,67.50
2018-01-12T12:02:16.484Z,45.00
2018-01-12T12:03:16.558Z,90.00
2018-01-12T12:04:16.581Z,45.00
2018-01-12T12:05:16.559Z,112.50
2018-01-12T12:06:16.525Z,157.50
2018-01-12T12:07:16.539Z,112.50
2018-01-12T12:08:16.584Z,67.50
2018-01-12T12:09:16.500Z,90.00
2018-01-12T12:10:16.457Z,45.00
2018-01-12T12:11:16.473Z,67.50
2018-01-12T12:12:16.543Z,45.00
2018-01-12T12:13:16.543Z,225.00
2018-01-12T12:14:16.495Z,225.00
2018-01-12T12:15:16.502Z,135.00
2018-01-12T12:16:16.497Z,202.50
2018-01-12T12:17:16.453Z,292.50
2018-01-12T12:18:16.452Z,292.50
2018-01-12T12:19:16.496Z,247.50
2018-01-12T12:20:16.498Z,337.50
2018-01-12T12:21:16.452Z,337.50
2018-01-12T12:22:16.500Z,337.50
2018-01-12T12:23:16.608Z,225.00
2018-01-12T12:24:16.541Z,247.50
2018-01-12T12:25:16.536Z,315.00
2018-01-12T12:26:16.604Z,337.50
2018-01-12T12:27:16.540Z,292.50
2018-01-12T12:28:16.612Z,337.50
2018-01-12T12:29:16.636Z,315.00
2018-01-12T12:30:16.542Z,0.00
2018-01-12T12:31:16.608Z,112.50
2018-01-12T12:32:16.545Z,337.50
2018-01-12T12:33:16.564Z,225.00
2018-01-12T12:34:16.483Z,157.50
2018-01-12T12:35:16.504Z,202.50
2018-01-12T12:36:16.571Z,180.00
2018-01-12T12:37:16.474Z,45.00
2018-01-12T12:38:16.513Z,292.50
2018-01-12T12:39:16.543Z,157.50
2018-01-12T12:40:16.503Z,22.50
2018-01-12T12:41:16.599Z,22.50